Norfolk, New York
Current Conditions -  °F | °C
As of 5:53 PM on Monday 22 Dec 2014 (Local Time) from KMSS Reporting Station
Overcast Overcast  
Wind Chill: 12°   Ceiling: 3300
Heat Index: 23°   Visibility: 8mi
Dew Point: 18°   Wind: 12mph
Humidity: 81%   Direction: 60°ENE
Pressure: 30.28"   Gusts: NA
Location:  44.8°N, 74.99°W
Report Text: KMSS 222253Z AUTO 06010KT 8SM OVC033 M05/M08 A3028 RMK AO2 SLP263 T10501078
Loading
Personal Weather Stations






























Interactive Weather Map New forecast layout! Learn more

10-Day Weather Forecast

Advertisements
Track Severe Weather on mobile